createdAt,value
2022-10-08T00:01:04.360Z,1.60
2022-10-08T00:03:33.756Z,1.55
2022-10-08T00:06:05.333Z,1.40
2022-10-08T00:08:37.743Z,2.00
2022-10-08T00:11:07.518Z,1.70
2022-10-08T00:13:41.699Z,2.83
2022-10-08T00:16:12.810Z,1.48
2022-10-08T00:18:43.326Z,1.50
2022-10-08T00:23:41.801Z,1.63
2022-10-08T00:26:08.871Z,1.60
2022-10-08T00:28:37.106Z,1.27
2022-10-08T00:31:11.929Z,1.27
2022-10-08T00:33:38.864Z,1.40
2022-10-08T00:36:08.671Z,1.25
2022-10-08T00:38:35.872Z,1.52
2022-10-08T00:41:05.512Z,1.10
2022-10-08T00:43:49.266Z,1.40
2022-10-08T00:46:27.710Z,1.30
2022-10-08T00:48:59.905Z,1.02
2022-10-08T00:51:26.776Z,1.10
2022-10-08T00:53:54.006Z,1.00
2022-10-08T00:56:22.195Z,1.08
2022-10-08T00:58:51.424Z,0.95
2022-10-08T01:01:18.303Z,1.15
2022-10-08T01:03:45.082Z,1.35
2022-10-08T01:06:27.689Z,1.00
2022-10-08T01:09:09.157Z,1.10
2022-10-08T01:11:47.794Z,0.90
2022-10-08T01:14:32.725Z,0.80
2022-10-08T01:17:33.375Z,0.80
2022-10-08T01:20:22.803Z,1.02
2022-10-08T01:23:04.706Z,1.05
2022-10-08T01:25:37.690Z,0.88
2022-10-08T01:28:42.195Z,1.00
2022-10-08T01:31:11.806Z,1.02
2022-10-08T01:34:19.094Z,0.90
2022-10-08T01:36:51.352Z,1.20
2022-10-08T01:39:21.151Z,1.25
2022-10-08T01:41:56.400Z,1.00
2022-10-08T01:44:26.930Z,1.02
2022-10-08T01:46:58.782Z,1.02
2022-10-08T01:49:31.881Z,2.65
2022-10-08T01:52:12.418Z,2.97
2022-10-08T01:57:10.332Z,1.30
2022-10-08T02:00:02.061Z,1.42
2022-10-08T02:02:29.190Z,1.20
2022-10-08T02:04:56.858Z,1.30
2022-10-08T02:07:36.365Z,1.55
2022-10-08T02:10:07.299Z,1.33
2022-10-08T02:12:34.866Z,1.52
2022-10-08T02:15:04.495Z,1.33
2022-10-08T02:17:37.385Z,1.42
2022-10-08T02:20:26.424Z,1.40
2022-10-08T02:23:04.341Z,1.70
2022-10-08T02:25:48.617Z,1.65
2022-10-08T02:28:37.220Z,1.73
2022-10-08T02:31:11.635Z,1.80
2022-10-08T02:33:44.553Z,1.70
2022-10-08T02:36:14.860Z,2.10
2022-10-08T02:38:52.870Z,2.30
2022-10-08T02:41:23.434Z,2.40
2022-10-08T02:43:53.334Z,2.20
2022-10-08T02:46:27.429Z,2.30
2022-10-08T02:49:09.225Z,2.20
2022-10-08T02:51:40.673Z,2.42
2022-10-08T02:54:08.537Z,2.22
2022-10-08T02:56:41.878Z,2.30
2022-10-08T02:59:10.746Z,2.25
2022-10-08T03:01:40.086Z,2.50
2022-10-08T03:04:18.975Z,2.45
2022-10-08T03:06:48.836Z,2.42
2022-10-08T03:09:18.015Z,2.80
2022-10-08T03:11:44.991Z,2.45
2022-10-08T03:14:15.025Z,2.45
2022-10-08T03:16:45.305Z,2.40
2022-10-08T03:19:15.634Z,2.70
2022-10-08T03:21:44.527Z,2.75
2022-10-08T03:24:13.889Z,2.90
2022-10-08T03:26:41.514Z,2.75
2022-10-08T03:29:09.151Z,2.80
2022-10-08T03:31:36.164Z,2.92
2022-10-08T03:34:03.129Z,2.90
2022-10-08T03:36:30.472Z,2.72
2022-10-08T03:38:57.641Z,2.42
2022-10-08T03:41:25.534Z,2.88
2022-10-08T03:43:52.379Z,2.63
2022-10-08T03:46:19.246Z,2.63
2022-10-08T03:48:48.945Z,2.47
2022-10-08T03:51:16.324Z,2.70
2022-10-08T03:53:43.774Z,2.55
2022-10-08T03:56:15.767Z,2.80
2022-10-08T03:58:43.545Z,2.75
2022-10-08T04:01:17.768Z,2.65
2022-10-08T04:03:45.592Z,2.33
2022-10-08T04:06:13.065Z,2.60
2022-10-08T04:08:40.336Z,2.42
2022-10-08T04:11:10.179Z,2.03
2022-10-08T04:13:37.716Z,2.00
2022-10-08T04:16:08.085Z,2.42
2022-10-08T04:21:04.510Z,2.53
2022-10-08T04:23:33.117Z,2.05
2022-10-08T04:25:59.843Z,2.13
2022-10-08T04:28:27.127Z,1.98
2022-10-08T04:31:02.299Z,2.10
2022-10-08T04:33:31.009Z,1.90
2022-10-08T04:36:00.334Z,2.00
2022-10-08T04:38:28.087Z,2.03
2022-10-08T04:41:23.156Z,1.77
2022-10-08T04:43:50.929Z,2.05
2022-10-08T04:46:19.789Z,1.70
2022-10-08T04:48:56.876Z,1.95
2022-10-08T04:51:25.458Z,1.77
2022-10-08T04:53:52.908Z,1.88
2022-10-08T04:56:22.929Z,1.98
2022-10-08T04:58:49.968Z,1.75
2022-10-08T05:01:19.453Z,1.70
2022-10-08T05:03:48.739Z,1.77
2022-10-08T05:06:16.946Z,1.70
2022-10-08T05:08:44.949Z,1.67
2022-10-08T05:11:12.043Z,1.80
2022-10-08T05:13:38.945Z,1.77
2022-10-08T05:16:13.711Z,1.73
2022-10-08T05:18:41.767Z,1.77
2022-10-08T05:21:11.147Z,1.60
2022-10-08T05:23:38.970Z,1.58
2022-10-08T05:26:35.865Z,1.80
2022-10-08T05:29:12.523Z,1.83
2022-10-08T05:31:39.703Z,2.00
2022-10-08T05:34:06.586Z,1.50
2022-10-08T05:36:34.385Z,1.50
2022-10-08T05:39:04.101Z,1.70
2022-10-08T05:41:34.867Z,1.58
2022-10-08T05:44:04.548Z,1.55
2022-10-08T05:46:34.030Z,1.80
2022-10-08T05:49:02.623Z,1.63
2022-10-08T05:51:30.196Z,1.55
2022-10-08T05:54:00.300Z,1.67
2022-10-08T05:56:28.804Z,1.88
2022-10-08T05:58:55.587Z,1.98
2022-10-08T06:01:24.672Z,2.10
2022-10-08T06:03:53.853Z,2.05
2022-10-08T06:06:22.868Z,1.80
2022-10-08T06:08:58.611Z,1.50
2022-10-08T06:11:28.617Z,1.52
2022-10-08T06:13:56.804Z,1.50
2022-10-08T06:16:24.600Z,1.90
2022-10-08T06:18:52.689Z,1.42
2022-10-08T06:21:24.874Z,1.60
2022-10-08T06:23:54.183Z,1.70
2022-10-08T06:26:22.486Z,1.58
2022-10-08T06:28:49.837Z,2.10
2022-10-08T06:31:17.577Z,1.90
2022-10-08T06:33:45.911Z,1.60
2022-10-08T06:36:23.631Z,1.40
2022-10-08T06:38:55.367Z,1.63
2022-10-08T06:41:26.270Z,1.80
2022-10-08T06:43:53.510Z,1.58
2022-10-08T06:46:20.611Z,1.40
2022-10-08T06:48:47.793Z,1.60
2022-10-08T06:51:16.662Z,2.10
2022-10-08T06:53:44.621Z,1.70
2022-10-08T06:56:14.862Z,1.50
2022-10-08T06:58:43.826Z,1.42
2022-10-08T07:01:17.135Z,1.63
2022-10-08T07:03:50.345Z,1.48
2022-10-08T07:06:17.281Z,1.90
2022-10-08T07:08:44.033Z,1.48
2022-10-08T07:11:16.473Z,1.80
2022-10-08T07:13:43.622Z,1.77
2022-10-08T07:16:18.159Z,1.33
2022-10-08T07:18:48.610Z,1.42
2022-10-08T07:21:17.159Z,1.40
2022-10-08T07:23:44.098Z,1.00
2022-10-08T07:26:37.654Z,1.23
2022-10-08T07:29:08.607Z,1.33
2022-10-08T07:31:37.033Z,1.58
2022-10-08T07:34:07.613Z,1.42
2022-10-08T07:39:04.135Z,1.48
2022-10-08T07:41:31.797Z,1.15
2022-10-08T07:44:00.975Z,1.80
2022-10-08T07:46:33.089Z,1.75
2022-10-08T07:49:01.468Z,1.50
2022-10-08T07:51:29.928Z,1.10
2022-10-08T07:54:02.146Z,1.33
2022-10-08T07:56:29.785Z,1.40
2022-10-08T07:58:57.783Z,1.10
2022-10-08T08:01:28.620Z,1.30
2022-10-08T08:04:07.714Z,1.65
2022-10-08T08:06:39.583Z,1.10
2022-10-08T08:09:06.369Z,1.48
2022-10-08T08:11:33.155Z,1.42
2022-10-08T08:13:59.866Z,1.67
2022-10-08T08:16:28.316Z,1.05
2022-10-08T08:18:58.078Z,1.88
2022-10-08T08:21:30.125Z,1.30
2022-10-08T08:23:59.369Z,1.33
2022-10-08T08:26:32.956Z,1.40
2022-10-08T08:29:02.763Z,1.23
2022-10-08T08:31:31.699Z,1.75
2022-10-08T08:34:01.289Z,1.25
2022-10-08T08:36:31.662Z,1.63
2022-10-08T08:38:59.173Z,1.27
2022-10-08T08:41:47.465Z,1.17
2022-10-08T08:44:28.308Z,1.23
2022-10-08T08:47:06.095Z,1.30
2022-10-08T08:49:53.363Z,1.92
2022-10-08T08:52:24.882Z,1.17
2022-10-08T08:54:53.443Z,1.13
2022-10-08T08:57:35.037Z,1.67
2022-10-08T09:00:12.650Z,1.40
2022-10-08T09:03:00.572Z,1.35
2022-10-08T09:05:31.598Z,1.30
2022-10-08T09:08:20.328Z,1.20
2022-10-08T09:10:59.847Z,1.20
2022-10-08T09:13:56.615Z,1.23
2022-10-08T09:16:28.304Z,1.83
2022-10-08T09:18:55.177Z,1.63
2022-10-08T09:21:33.681Z,1.50
2022-10-08T09:24:00.939Z,1.85
2022-10-08T09:26:35.459Z,1.23
2022-10-08T09:29:04.716Z,1.58
2022-10-08T09:31:48.192Z,1.85
2022-10-08T09:34:21.585Z,1.58
2022-10-08T09:36:53.880Z,1.85
2022-10-08T09:39:26.659Z,1.60
2022-10-08T09:42:13.065Z,1.70
2022-10-08T09:44:51.939Z,1.50
2022-10-08T09:47:21.032Z,1.50
2022-10-08T09:50:21.838Z,1.52
2022-10-08T09:52:53.478Z,1.27
2022-10-08T09:55:30.888Z,2.03
2022-10-08T09:58:00.574Z,1.77
2022-10-08T10:00:36.476Z,1.45
2022-10-08T10:03:07.922Z,1.20
2022-10-08T10:05:36.856Z,1.42
2022-10-08T10:08:04.326Z,1.30
2022-10-08T10:10:57.674Z,1.77
2022-10-08T10:13:37.817Z,1.50
2022-10-08T10:16:36.022Z,1.30
2022-10-08T10:19:08.764Z,1.33
2022-10-08T10:21:47.090Z,1.50
2022-10-08T10:24:48.280Z,1.05
2022-10-08T10:27:29.248Z,1.05
2022-10-08T10:30:12.958Z,1.08
2022-10-08T10:32:45.332Z,1.60
2022-10-08T10:35:30.469Z,1.10
2022-10-08T10:38:01.012Z,1.58
2022-10-08T10:40:36.712Z,1.20
2022-10-08T10:43:12.828Z,1.08
2022-10-08T10:45:43.579Z,1.20
2022-10-08T10:48:13.995Z,1.38
2022-10-08T10:53:25.457Z,0.90
2022-10-08T10:56:16.035Z,1.00
2022-10-08T11:01:43.009Z,1.83
2022-10-08T11:04:47.554Z,1.10
2022-10-08T11:07:29.298Z,1.13
2022-10-08T11:10:15.284Z,1.00
2022-10-08T11:13:06.323Z,1.77
2022-10-08T11:15:42.183Z,1.10
2022-10-08T11:18:24.782Z,1.50
2022-10-08T11:21:12.751Z,1.38
2022-10-08T11:23:53.214Z,1.25
2022-10-08T11:29:22.400Z,1.60
2022-10-08T11:31:51.807Z,2.05
2022-10-08T11:34:25.672Z,1.08
2022-10-08T11:37:09.012Z,1.33
2022-10-08T11:39:49.874Z,1.40
2022-10-08T11:42:34.677Z,1.10
2022-10-08T11:45:23.017Z,1.45
2022-10-08T11:47:58.058Z,1.52
2022-10-08T11:50:25.815Z,1.20
2022-10-08T11:52:56.151Z,1.42
2022-10-08T11:55:30.466Z,1.17
2022-10-08T11:58:09.743Z,1.17
2022-10-08T12:00:39.936Z,2.00
2022-10-08T12:03:30.314Z,1.20
2022-10-08T12:08:52.996Z,1.58
2022-10-08T12:11:31.952Z,1.00
2022-10-08T12:14:19.842Z,1.33
2022-10-08T12:16:49.426Z,1.75
2022-10-08T12:19:34.527Z,1.75
2022-10-08T12:22:01.317Z,2.13
2022-10-08T12:24:40.001Z,2.10
2022-10-08T12:27:21.570Z,1.35
2022-10-08T12:29:57.639Z,1.45
2022-10-08T12:32:29.953Z,1.67
2022-10-08T12:34:57.255Z,1.83
2022-10-08T12:37:36.244Z,1.08
2022-10-08T12:40:19.530Z,1.55
2022-10-08T12:42:49.474Z,1.23
2022-10-08T12:45:24.503Z,2.00
2022-10-08T12:48:31.941Z,1.38
2022-10-08T12:51:21.851Z,1.30
2022-10-08T12:53:49.550Z,1.85
2022-10-08T12:56:26.316Z,1.65
2022-10-08T12:58:56.915Z,0.95
2022-10-08T13:01:24.644Z,1.33
2022-10-08T13:04:26.886Z,1.30
2022-10-08T13:06:55.379Z,2.38
2022-10-08T13:09:32.423Z,2.67
2022-10-08T13:12:03.849Z,1.55
2022-10-08T13:14:36.606Z,2.10
2022-10-08T13:17:03.660Z,2.40
2022-10-08T13:19:40.570Z,2.50
2022-10-08T13:22:36.708Z,1.65
2022-10-08T13:25:04.640Z,1.50
2022-10-08T13:27:33.889Z,1.35
2022-10-08T13:30:21.984Z,1.60
2022-10-08T13:32:48.847Z,1.48
2022-10-08T13:35:24.379Z,1.30
2022-10-08T13:37:53.486Z,1.00
2022-10-08T13:40:22.464Z,1.10
2022-10-08T13:42:56.298Z,1.30
2022-10-08T13:45:26.726Z,1.25
2022-10-08T13:50:21.319Z,1.70
2022-10-08T13:52:53.814Z,1.30
2022-10-08T13:55:29.758Z,1.20
2022-10-08T13:57:59.903Z,2.15
2022-10-08T14:00:27.024Z,1.70
2022-10-08T14:02:53.795Z,2.28
2022-10-08T14:05:21.705Z,1.55
2022-10-08T14:07:52.752Z,1.30
2022-10-08T14:10:19.708Z,1.52
2022-10-08T14:12:46.588Z,1.70
2022-10-08T14:15:15.557Z,1.27
2022-10-08T14:17:43.233Z,1.00
2022-10-08T14:20:10.963Z,1.70
2022-10-08T14:22:40.605Z,1.35
2022-10-08T14:25:09.155Z,1.38
2022-10-08T14:27:36.037Z,1.13
2022-10-08T14:30:02.764Z,1.75
2022-10-08T14:32:29.575Z,1.05
2022-10-08T14:34:56.344Z,1.35
2022-10-08T14:37:23.064Z,1.08
2022-10-08T14:39:49.732Z,0.77
2022-10-08T14:42:16.442Z,1.33
2022-10-08T14:44:43.137Z,1.13
2022-10-08T14:47:09.883Z,1.30
2022-10-08T14:49:36.667Z,1.17
2022-10-08T14:52:03.534Z,1.30
2022-10-08T14:54:30.346Z,1.85
2022-10-08T14:56:57.119Z,1.55
2022-10-08T14:59:23.855Z,1.52
2022-10-08T15:01:50.681Z,1.23
2022-10-08T15:04:17.521Z,1.40
2022-10-08T15:06:47.187Z,1.15
2022-10-08T15:09:15.354Z,1.90
2022-10-08T15:11:43.437Z,1.77
2022-10-08T15:14:10.201Z,1.30
2022-10-08T15:16:36.967Z,1.63
2022-10-08T15:19:07.774Z,1.70
2022-10-08T15:21:35.058Z,1.40
2022-10-08T15:24:01.806Z,1.30
2022-10-08T15:26:28.825Z,1.85
2022-10-08T15:28:55.551Z,1.30
2022-10-08T15:31:25.320Z,1.77
2022-10-08T15:33:56.093Z,2.33
2022-10-08T15:36:28.251Z,2.15
2022-10-08T15:39:04.563Z,1.67
2022-10-08T15:41:35.688Z,1.50
2022-10-08T15:44:11.951Z,1.42
2022-10-08T15:46:38.736Z,1.70
2022-10-08T15:49:06.531Z,1.52
2022-10-08T15:51:33.777Z,1.25
2022-10-08T15:54:01.343Z,1.50
2022-10-08T15:56:29.054Z,1.80
2022-10-08T15:58:57.985Z,1.98
2022-10-08T16:01:25.721Z,1.58
2022-10-08T16:03:54.565Z,1.92
2022-10-08T16:06:27.391Z,1.20
2022-10-08T16:08:56.926Z,1.65
2022-10-08T16:11:31.839Z,1.90
2022-10-08T16:14:08.373Z,1.70
2022-10-08T16:16:35.786Z,1.50
2022-10-08T16:19:05.142Z,1.90
2022-10-08T16:21:33.551Z,2.40
2022-10-08T16:24:01.176Z,2.53
2022-10-08T16:26:31.739Z,2.30
2022-10-08T16:29:00.657Z,2.53
2022-10-08T16:31:30.111Z,6.22
2022-10-08T16:33:58.904Z,3.58
2022-10-08T16:36:26.270Z,3.13
2022-10-08T16:38:53.626Z,2.50
2022-10-08T16:41:28.852Z,2.40
2022-10-08T16:43:57.710Z,2.90
2022-10-08T16:46:30.827Z,2.58
2022-10-08T16:49:03.926Z,2.67
2022-10-08T16:51:33.976Z,1.73
2022-10-08T16:54:02.344Z,1.60
2022-10-08T16:56:31.459Z,1.60
2022-10-08T16:59:00.918Z,1.85
2022-10-08T17:01:27.771Z,1.95
2022-10-08T17:03:55.346Z,1.42
2022-10-08T17:06:23.677Z,1.48
2022-10-08T17:08:52.003Z,1.80
2022-10-08T17:11:24.914Z,1.70
2022-10-08T17:13:56.254Z,1.63
2022-10-08T17:16:24.656Z,1.30
2022-10-08T17:18:53.797Z,1.40
2022-10-08T17:21:21.458Z,1.95
2022-10-08T17:23:48.859Z,1.70
2022-10-08T17:26:21.156Z,1.80
2022-10-08T17:28:49.996Z,1.65
2022-10-08T17:31:19.348Z,1.40
2022-10-08T17:33:46.720Z,1.50
2022-10-08T17:36:22.276Z,1.48
2022-10-08T17:38:51.464Z,1.42
2022-10-08T17:41:20.973Z,2.20
2022-10-08T17:43:48.976Z,2.10
2022-10-08T17:46:22.029Z,2.10
2022-10-08T17:48:49.227Z,2.60
2022-10-08T17:51:18.922Z,1.70
2022-10-08T17:53:51.987Z,2.15
2022-10-08T17:56:18.772Z,2.00
2022-10-08T17:58:46.554Z,1.73
2022-10-08T18:01:15.030Z,1.95
2022-10-08T18:03:43.441Z,1.48
2022-10-08T18:06:11.969Z,1.70
2022-10-08T18:08:38.931Z,1.80
2022-10-08T18:11:09.012Z,1.77
2022-10-08T18:13:36.629Z,1.92
2022-10-08T18:16:10.847Z,2.20
2022-10-08T18:18:37.805Z,2.20
2022-10-08T18:21:05.497Z,1.70
2022-10-08T18:23:34.334Z,1.90
2022-10-08T18:26:18.875Z,1.98
2022-10-08T18:28:47.538Z,2.55
2022-10-08T18:31:15.600Z,2.53
2022-10-08T18:33:44.170Z,3.20
2022-10-08T18:36:12.145Z,3.03
2022-10-08T18:38:40.077Z,2.75
2022-10-08T18:41:30.147Z,2.58
2022-10-08T18:43:59.721Z,2.47
2022-10-08T18:46:27.997Z,2.50
2022-10-08T18:48:55.469Z,2.42
2022-10-08T18:51:24.788Z,2.30
2022-10-08T18:53:52.802Z,3.10
2022-10-08T18:56:21.122Z,3.35
2022-10-08T18:58:49.608Z,4.25
2022-10-08T19:01:21.961Z,4.32
2022-10-08T19:03:50.941Z,5.03
2022-10-08T19:06:19.646Z,5.60
2022-10-08T19:08:47.979Z,5.93
2022-10-08T19:11:22.728Z,6.93
2022-10-08T19:13:53.677Z,9.18
2022-10-08T19:16:20.854Z,10.63
2022-10-08T19:18:56.092Z,8.00
2022-10-08T19:21:23.943Z,6.15
2022-10-08T19:23:51.575Z,4.07
2022-10-08T19:26:19.166Z,3.40
2022-10-08T19:28:48.802Z,2.97
2022-10-08T19:31:22.182Z,2.58
2022-10-08T19:33:54.133Z,2.10
2022-10-08T19:36:24.332Z,2.10
2022-10-08T19:38:55.816Z,1.70
2022-10-08T19:41:23.579Z,1.70
2022-10-08T19:43:51.411Z,2.13
2022-10-08T19:46:18.341Z,2.20
2022-10-08T19:48:50.005Z,2.35
2022-10-08T19:51:17.358Z,3.30
2022-10-08T19:53:44.321Z,3.78
2022-10-08T19:56:12.067Z,4.60
2022-10-08T19:58:39.969Z,4.03
2022-10-08T20:01:15.283Z,3.78
2022-10-08T20:03:42.351Z,3.42
2022-10-08T20:06:12.040Z,2.90
2022-10-08T20:08:39.063Z,2.92
2022-10-08T20:11:14.430Z,2.55
2022-10-08T20:13:42.661Z,2.00
2022-10-08T20:16:13.618Z,2.45
2022-10-08T20:18:40.491Z,1.83
2022-10-08T20:21:11.038Z,2.30
2022-10-08T20:23:39.623Z,2.28
2022-10-08T20:26:21.387Z,2.47
2022-10-08T20:28:50.927Z,2.97
2022-10-08T20:31:23.533Z,2.67
2022-10-08T20:33:57.058Z,2.97
2022-10-08T20:36:24.862Z,3.47
2022-10-08T20:38:52.480Z,2.72
2022-10-08T20:41:19.460Z,2.75
2022-10-08T20:43:46.835Z,2.72
2022-10-08T20:46:15.557Z,2.60
2022-10-08T20:48:43.688Z,2.80
2022-10-08T20:51:15.936Z,2.88
2022-10-08T20:53:52.601Z,2.95
2022-10-08T20:56:20.333Z,2.65
2022-10-08T20:58:47.161Z,2.35
2022-10-08T21:01:17.245Z,2.70
2022-10-08T21:03:45.047Z,2.80
2022-10-08T21:06:14.618Z,2.70
2022-10-08T21:08:44.429Z,2.53
2022-10-08T21:11:19.511Z,2.92
2022-10-08T21:13:47.740Z,2.75
2022-10-08T21:16:16.595Z,2.85
2022-10-08T21:18:44.417Z,2.90
2022-10-08T21:21:13.117Z,2.85
2022-10-08T21:23:41.291Z,2.90
2022-10-08T21:26:14.742Z,3.00
2022-10-08T21:28:43.245Z,2.53
2022-10-08T21:31:10.770Z,2.72
2022-10-08T21:33:41.771Z,3.60
2022-10-08T21:36:14.362Z,2.80
2022-10-08T21:38:43.492Z,3.05
2022-10-08T21:41:12.679Z,2.75
2022-10-08T21:43:44.364Z,2.75
2022-10-08T21:46:13.670Z,3.40
2022-10-08T21:48:40.949Z,3.13
2022-10-08T21:51:20.261Z,2.80
2022-10-08T21:53:49.691Z,2.67
2022-10-08T21:56:19.248Z,3.33
2022-10-08T21:58:48.005Z,2.90
2022-10-08T22:01:35.186Z,3.20
2022-10-08T22:04:08.000Z,3.15
2022-10-08T22:06:37.808Z,2.88
2022-10-08T22:09:06.921Z,3.88
2022-10-08T22:11:33.996Z,3.33
2022-10-08T22:14:00.746Z,3.95
2022-10-08T22:16:29.784Z,3.08
2022-10-08T22:18:57.431Z,2.85
2022-10-08T22:21:24.744Z,3.35
2022-10-08T22:23:52.540Z,3.00
2022-10-08T22:26:19.170Z,2.92
2022-10-08T22:28:46.177Z,3.10
2022-10-08T22:31:15.080Z,2.78
2022-10-08T22:33:41.963Z,3.33
2022-10-08T22:36:14.817Z,2.80
2022-10-08T22:38:42.997Z,3.00
2022-10-08T22:41:21.669Z,3.17
2022-10-08T22:43:48.696Z,3.40
2022-10-08T22:46:18.471Z,3.25
2022-10-08T22:48:45.402Z,2.72
2022-10-08T22:51:14.913Z,2.90
2022-10-08T22:53:43.349Z,3.07
2022-10-08T22:56:18.853Z,3.22
2022-10-08T22:58:45.903Z,3.70
2022-10-08T23:01:15.618Z,2.88
2022-10-08T23:03:43.060Z,3.40
2022-10-08T23:06:22.086Z,3.38
2022-10-08T23:08:54.337Z,2.92
2022-10-08T23:11:21.362Z,3.05
2022-10-08T23:13:52.524Z,3.28
2022-10-08T23:16:19.955Z,3.05
2022-10-08T23:18:51.640Z,3.45
2022-10-08T23:21:18.803Z,3.03
2022-10-08T23:23:47.359Z,3.25
2022-10-08T23:26:15.182Z,3.20
2022-10-08T23:28:42.662Z,3.33
2022-10-08T23:31:18.207Z,3.45
2022-10-08T23:33:47.152Z,3.40
2022-10-08T23:36:18.001Z,3.33
2022-10-08T23:38:45.151Z,3.30
2022-10-08T23:41:13.001Z,3.05
2022-10-08T23:43:42.372Z,3.40
2022-10-08T23:46:11.244Z,3.25
2022-10-08T23:48:38.639Z,3.53
2022-10-08T23:51:06.215Z,3.47
2022-10-08T23:53:33.427Z,3.50
2022-10-08T23:56:00.538Z,3.50
2022-10-08T23:58:28.373Z,3.22
